Time;durP1;ratioP1;P1;durP2;ratioP2;P2;SDS_P1;SDS_P2;PMS_P1;PMS_P2;Temp;Humidity;BMP_temperature;BMP_pressure;BME280_temperature;BME280_humidity;BME280_pressure;Samples;Min_cycle;Max_cycle;Signal;HPM_P1;HPM_P2
2021/04/28 00:01:31;;;;;;;3.95;2.28;;;11.40;53.70;;;;;;5013335;28;20549;-60
2021/04/28 00:03:57;;;;;;;5.43;2.20;;;11.40;53.70;;;;;;5013073;28;20393;-60
2021/04/28 00:06:22;;;;;;;3.50;2.20;;;11.40;53.60;;;;;;5012541;28;20029;-60
2021/04/28 00:08:48;;;;;;;12.55;2.22;;;11.30;53.60;;;;;;5012887;28;20080;-60
2021/04/28 00:11:14;;;;;;;5.93;2.75;;;11.30;53.70;;;;;;5013117;28;20018;-60
2021/04/28 00:13:40;;;;;;;4.22;2.30;;;11.30;53.60;;;;;;5012310;28;20037;-60
2021/04/28 00:16:05;;;;;;;5.05;2.30;;;11.30;53.60;;;;;;5012956;28;20018;-60
2021/04/28 00:18:31;;;;;;;4.50;2.83;;;11.20;53.60;;;;;;5013090;28;20030;-61
2021/04/28 00:20:57;;;;;;;2.95;2.38;;;11.20;53.70;;;;;;5011969;28;20180;-60
2021/04/28 00:23:23;;;;;;;3.03;2.10;;;11.10;53.90;;;;;;5012982;28;20029;-60
2021/04/28 00:25:49;;;;;;;9.40;2.55;;;11.20;54.10;;;;;;5012787;28;20060;-60
2021/04/28 00:28:15;;;;;;;6.40;2.13;;;11.10;54.10;;;;;;5011220;28;20076;-60
2021/04/28 00:30:41;;;;;;;11.15;2.65;;;11.10;54.10;;;;;;5012860;28;20038;-60
2021/04/28 00:33:07;;;;;;;4.47;2.50;;;11.10;54.20;;;;;;5013326;28;20018;-60
2021/04/28 00:35:34;;;;;;;4.05;2.35;;;11.00;54.20;;;;;;5012147;28;20029;-60
2021/04/28 00:37:59;;;;;;;3.92;2.33;;;10.90;54.00;;;;;;5012578;28;20072;-60
2021/04/28 00:40:36;;;;;;;4.90;2.17;;;10.90;54.00;;;;;;5012121;28;20026;-60
2021/04/28 00:43:02;;;;;;;4.63;2.53;;;10.90;54.00;;;;;;5012749;28;20052;-60
2021/04/28 00:45:33;;;;;;;6.88;2.28;;;10.90;54.20;;;;;;5012712;28;20029;-60
2021/04/28 00:48:00;;;;;;;3.35;2.13;;;10.80;54.20;;;;;;4994331;28;20036;-60
2021/04/28 00:50:32;;;;;;;26.10;2.78;;;10.80;54.40;;;;;;5012473;28;20030;-60
2021/04/28 00:53:00;;;;;;;4.68;2.60;;;10.80;54.40;;;;;;4995203;28;20117;-60
2021/04/28 00:55:28;;;;;;;6.60;2.35;;;10.80;54.60;;;;;;4994250;28;20477;-60
2021/04/28 00:57:54;;;;;;;7.60;2.33;;;10.70;54.90;;;;;;4995052;28;20385;-60
2021/04/28 01:00:21;;;;;;;2.88;2.03;;;10.60;55.00;;;;;;5012591;28;20030;-60
2021/04/28 01:02:47;;;;;;;5.00;3.03;;;10.60;55.00;;;;;;5011991;28;20037;-60
2021/04/28 01:05:15;;;;;;;8.30;2.53;;;10.60;55.00;;;;;;5012353;28;20030;-60
2021/04/28 01:07:42;;;;;;;4.93;2.13;;;10.60;55.00;;;;;;5012757;28;20037;-60
2021/04/28 01:10:11;;;;;;;7.30;3.30;;;10.60;55.10;;;;;;5011834;28;20496;-60
2021/04/28 01:12:38;;;;;;;4.45;2.30;;;10.50;55.00;;;;;;5012565;28;20084;-60
2021/04/28 01:15:10;;;;;;;4.85;2.45;;;10.50;55.10;;;;;;4994948;28;20504;-60
2021/04/28 01:17:38;;;;;;;2.78;2.05;;;10.40;55.00;;;;;;4990641;28;20046;-60
2021/04/28 01:20:10;;;;;;;3.88;2.35;;;10.40;55.10;;;;;;4991580;28;20089;-60
2021/04/28 01:22:41;;;;;;;3.88;2.60;;;10.40;55.10;;;;;;4984230;28;20397;-60
2021/04/28 01:25:09;;;;;;;7.68;2.75;;;10.30;55.20;;;;;;4972021;28;20478;-60
2021/04/28 01:27:39;;;;;;;3.38;2.30;;;10.30;55.30;;;;;;4990211;28;20053;-60
2021/04/28 01:30:08;;;;;;;5.88;2.50;;;10.30;55.40;;;;;;4991955;28;20046;-60
2021/04/28 01:32:37;;;;;;;3.92;2.65;;;10.30;55.60;;;;;;4992750;28;20031;-60
2021/04/28 01:35:04;;;;;;;5.30;2.67;;;10.20;55.70;;;;;;4991663;28;20458;-60
2021/04/28 01:37:31;;;;;;;6.70;2.80;;;10.20;55.80;;;;;;4991714;28;20030;-60
2021/04/28 01:40:00;;;;;;;6.85;3.10;;;10.10;55.80;;;;;;4992674;28;20058;-60
2021/04/28 01:42:27;;;;;;;6.05;2.50;;;10.10;56.00;;;;;;4994936;28;20027;-60
2021/04/28 01:44:55;;;;;;;6.13;2.72;;;10.10;56.10;;;;;;4995064;28;20478;-59
2021/04/28 01:47:22;;;;;;;7.18;2.72;;;10.00;56.10;;;;;;4994869;28;20130;-59
2021/04/28 01:49:52;;;;;;;5.00;2.90;;;10.00;56.20;;;;;;4994494;28;20129;-60
2021/04/28 01:52:19;;;;;;;6.40;2.97;;;10.00;56.30;;;;;;4995426;28;20030;-60
2021/04/28 01:54:49;;;;;;;5.38;2.72;;;9.90;56.40;;;;;;4996049;28;20035;-59
2021/04/28 01:57:16;;;;;;;4.55;2.85;;;9.90;56.50;;;;;;4994470;28;20026;-60
2021/04/28 01:59:57;;;;;;;4.82;2.65;;;9.90;56.60;;;;;;4993987;28;20034;-60
2021/04/28 02:02:50;;;;;;;5.65;3.08;;;9.90;56.80;;;;;;4995820;28;20482;-60
2021/04/28 02:05:21;;;;;;;5.55;3.08;;;9.80;56.90;;;;;;4993681;28;20065;-60
2021/04/28 02:07:48;;;;;;;6.32;2.95;;;9.80;57.00;;;;;;4995737;28;20049;-60
2021/04/28 02:10:16;;;;;;;5.72;2.72;;;9.80;57.10;;;;;;4981724;28;20066;-60
2021/04/28 02:12:42;;;;;;;6.47;2.63;;;9.70;57.20;;;;;;4993637;28;20042;-59
2021/04/28 02:15:12;;;;;;;4.70;2.72;;;9.70;57.20;;;;;;4994363;28;20037;-60
2021/04/28 02:17:53;;;;;;;4.88;2.83;;;9.70;57.30;;;;;;4994185;28;20053;-60
2021/04/28 02:20:20;;;;;;;4.38;2.72;;;9.70;57.90;;;;;;4993534;28;20077;-59
2021/04/28 02:22:55;;;;;;;4.43;2.85;;;9.60;57.40;;;;;;4994241;28;20038;-59
2021/04/28 02:25:24;;;;;;;5.88;2.40;;;9.60;57.50;;;;;;4994215;28;20092;-60
2021/04/28 02:27:56;;;;;;;6.38;2.92;;;9.50;57.50;;;;;;4993261;28;20030;-59
2021/04/28 02:30:24;;;;;;;5.50;2.58;;;9.60;57.70;;;;;;4993967;28;20069;-60
2021/04/28 02:32:51;;;;;;;5.63;3.33;;;9.50;57.70;;;;;;4995051;28;20094;-60
2021/04/28 02:35:41;;;;;;;5.25;2.80;;;9.50;57.80;;;;;;4983455;28;20513;-60
2021/04/28 02:38:36;;;;;;;6.55;2.53;;;9.50;57.80;;;;;;4974348;28;20117;-60
2021/04/28 02:41:07;;;;;;;7.82;2.50;;;9.50;57.90;;;;;;4974603;28;20115;-60
2021/04/28 02:43:38;;;;;;;5.68;3.45;;;9.40;58.00;;;;;;4974412;28;20031;-60
2021/04/28 02:46:13;;;;;;;4.22;2.53;;;9.40;58.10;;;;;;4962916;28;20027;-60
2021/04/28 02:48:48;;;;;;;4.45;2.60;;;9.40;58.10;;;;;;4973617;28;20043;-60
2021/04/28 02:51:45;;;;;;;7.32;2.75;;;9.30;58.10;;;;;;4927308;29;20032;-60
2021/04/28 02:54:31;;;;;;;6.03;2.78;;;9.30;58.20;;;;;;4973434;28;20065;-60
2021/04/28 02:56:58;;;;;;;10.63;2.95;;;9.30;58.30;;;;;;4975476;28;20114;-60
2021/04/28 02:59:25;;;;;;;4.38;2.78;;;9.30;58.30;;;;;;4973870;28;20026;-60
2021/04/28 03:01:52;;;;;;;4.45;2.53;;;9.20;58.30;;;;;;4973278;28;20037;-60
2021/04/28 03:04:21;;;;;;;4.95;2.67;;;9.20;58.30;;;;;;4975293;28;20036;-60
2021/04/28 03:07:05;;;;;;;6.55;2.83;;;9.20;58.30;;;;;;4975464;28;20042;-60
2021/04/28 03:09:32;;;;;;;9.43;3.25;;;9.20;58.40;;;;;;4972653;28;20122;-59
2021/04/28 03:11:59;;;;;;;4.05;2.60;;;9.20;58.50;;;;;;4975230;28;20034;-60
2021/04/28 03:14:29;;;;;;;7.75;2.97;;;9.10;58.50;;;;;;4974877;28;20042;-60
2021/04/28 03:16:56;;;;;;;5.45;3.22;;;9.10;58.70;;;;;;4981310;28;20050;-60
2021/04/28 03:19:21;;;;;;;9.52;3.08;;;9.00;58.70;;;;;;4994353;28;20030;-59
2021/04/28 03:21:49;;;;;;;4.82;2.42;;;9.00;58.90;;;;;;4994257;28;20473;-60
2021/04/28 03:24:17;;;;;;;5.60;3.00;;;9.00;59.10;;;;;;4992459;28;20093;-59
2021/04/28 03:26:43;;;;;;;7.75;3.00;;;9.00;59.10;;;;;;4992766;28;20058;-60
2021/04/28 03:29:10;;;;;;;4.97;3.03;;;9.00;59.30;;;;;;4992534;28;20045;-60
2021/04/28 03:31:38;;;;;;;10.43;4.03;;;9.00;59.40;;;;;;4994069;28;20058;-60
2021/04/28 03:34:09;;;;;;;6.32;2.83;;;8.90;59.40;;;;;;4992918;28;20030;-60
2021/04/28 03:36:35;;;;;;;7.88;3.05;;;8.90;59.50;;;;;;4991857;28;20026;-59
2021/04/28 03:39:21;;;;;;;6.28;2.75;;;8.90;59.60;;;;;;4989976;28;20445;-60
2021/04/28 03:41:47;;;;;;;5.15;3.00;;;8.90;59.60;;;;;;4992615;28;20037;-60
2021/04/28 03:44:13;;;;;;;7.63;3.13;;;8.80;59.70;;;;;;4991836;28;20022;-59
2021/04/28 03:46:39;;;;;;;5.10;2.80;;;8.80;59.80;;;;;;4994035;28;20038;-59
2021/04/28 03:49:05;;;;;;;10.68;2.72;;;8.80;59.80;;;;;;4992487;28;20034;-60
2021/04/28 03:51:32;;;;;;;6.53;3.10;;;8.80;59.90;;;;;;4993164;28;20108;-59
2021/04/28 03:54:17;;;;;;;9.13;2.95;;;8.80;60.00;;;;;;4993798;28;20524;-60
2021/04/28 03:56:45;;;;;;;7.75;3.63;;;8.70;60.00;;;;;;4992483;28;20022;-59
2021/04/28 03:59:12;;;;;;;7.90;2.95;;;8.70;60.00;;;;;;4991650;28;20026;-59
2021/04/28 04:01:39;;;;;;;6.78;2.95;;;8.70;60.10;;;;;;4993838;28;20088;-59
2021/04/28 04:04:08;;;;;;;4.43;3.10;;;8.70;60.20;;;;;;4992225;28;20490;-59
2021/04/28 04:06:53;;;;;;;6.95;3.60;;;8.60;60.30;;;;;;4992921;28;20084;-60
2021/04/28 04:09:34;;;;;;;9.85;3.35;;;8.60;60.40;;;;;;5008262;28;20046;-60
2021/04/28 04:12:01;;;;;;;5.20;2.90;;;8.60;60.70;;;;;;4992771;28;20152;-60
2021/04/28 04:14:34;;;;;;;8.88;2.97;;;8.60;60.70;;;;;;4992122;28;20026;-59
2021/04/28 04:17:00;;;;;;;6.05;3.53;;;8.50;60.70;;;;;;5002239;28;20553;-60
2021/04/28 04:19:26;;;;;;;5.15;3.42;;;8.50;60.80;;;;;;4994593;28;20022;-60
2021/04/28 04:22:01;;;;;;;6.47;2.90;;;8.50;60.90;;;;;;4988513;28;20029;-60
2021/04/28 04:24:43;;;;;;;8.07;3.50;;;8.50;60.90;;;;;;4988509;28;20037;-60
2021/04/28 04:27:11;;;;;;;11.88;3.10;;;8.50;61.00;;;;;;4994432;28;20034;-59
2021/04/28 04:30:01;;;;;;;8.90;3.83;;;8.50;61.00;;;;;;5001822;28;20040;-59
2021/04/28 04:32:47;;;;;;;6.38;3.25;;;8.50;61.70;;;;;;5006602;28;20040;-60
2021/04/28 04:35:31;;;;;;;6.40;3.33;;;8.50;61.00;;;;;;5012881;28;20041;-59
2021/04/28 04:37:59;;;;;;;8.30;3.03;;;8.40;61.00;;;;;;5012623;28;20088;-60
2021/04/28 04:40:44;;;;;;;6.15;3.35;;;8.40;61.20;;;;;;5011574;28;20099;-60
2021/04/28 04:43:31;;;;;;;5.80;2.53;;;8.40;61.30;;;;;;4994157;28;20453;-59
2021/04/28 04:46:15;;;;;;;8.02;3.42;;;8.40;61.50;;;;;;5010889;28;20492;-60
2021/04/28 04:48:40;;;;;;;6.15;3.30;;;8.40;61.60;;;;;;5011553;28;20037;-60
2021/04/28 04:51:06;;;;;;;4.50;3.35;;;8.40;61.80;;;;;;5009599;28;20389;-60
2021/04/28 04:53:32;;;;;;;5.88;3.50;;;8.40;61.90;;;;;;5012274;28;20037;-59
2021/04/28 04:55:58;;;;;;;8.60;3.35;;;8.30;62.00;;;;;;5011523;28;20116;-60
2021/04/28 04:58:23;;;;;;;7.68;3.53;;;8.30;62.10;;;;;;5012080;28;20022;-60
2021/04/28 05:00:49;;;;;;;5.63;3.35;;;8.40;62.30;;;;;;5011333;28;20030;-60
2021/04/28 05:03:15;;;;;;;11.40;3.70;;;8.40;62.60;;;;;;5012333;28;20081;-60
2021/04/28 05:05:40;;;;;;;10.60;3.20;;;8.30;62.70;;;;;;5012079;28;20710;-60
2021/04/28 05:08:06;;;;;;;6.75;3.60;;;8.30;62.90;;;;;;5008891;28;20461;-60
2021/04/28 05:10:32;;;;;;;6.20;3.28;;;8.30;63.10;;;;;;5012269;28;20460;-59
2021/04/28 05:12:58;;;;;;;8.25;3.80;;;8.30;63.30;;;;;;5012219;28;20033;-60
2021/04/28 05:15:24;;;;;;;6.32;3.00;;;8.30;63.50;;;;;;5013621;28;20083;-59
2021/04/28 05:17:50;;;;;;;8.05;3.58;;;8.30;63.70;;;;;;5015888;28;20099;-59
2021/04/28 05:20:16;;;;;;;8.05;2.88;;;8.30;63.90;;;;;;5016100;28;20112;-59
2021/04/28 05:22:42;;;;;;;8.30;3.30;;;8.30;64.20;;;;;;5015337;28;20041;-60
2021/04/28 05:25:34;;;;;;;5.35;2.67;;;8.30;64.50;;;;;;4985516;28;20378;-59
2021/04/28 05:28:00;;;;;;;7.35;3.30;;;8.20;64.50;;;;;;5015857;28;20030;-60
2021/04/28 05:30:26;;;;;;;6.32;3.50;;;8.20;64.70;;;;;;5014876;28;20038;-60
2021/04/28 05:32:51;;;;;;;9.10;3.58;;;8.20;64.80;;;;;;5015923;28;20026;-60
2021/04/28 05:35:17;;;;;;;6.78;3.17;;;8.20;65.00;;;;;;5015844;28;20519;-59
2021/04/28 05:37:43;;;;;;;6.65;3.50;;;8.20;65.10;;;;;;5015149;28;20387;-59
2021/04/28 05:40:10;;;;;;;9.27;2.90;;;8.30;65.20;;;;;;5015514;28;20418;-60
2021/04/28 05:42:37;;;;;;;8.07;3.75;;;8.20;65.10;;;;;;5015714;28;20476;-60
2021/04/28 05:45:08;;;;;;;7.63;3.20;;;8.30;65.30;;;;;;5014701;28;20508;-60
2021/04/28 05:47:34;;;;;;;6.60;3.53;;;8.30;65.40;;;;;;5002580;28;20029;-60
2021/04/28 05:50:00;;;;;;;6.22;3.40;;;8.20;65.60;;;;;;4997266;28;20052;-60
2021/04/28 05:52:26;;;;;;;6.78;3.22;;;8.20;65.70;;;;;;5015409;28;20473;-60
2021/04/28 05:54:51;;;;;;;6.13;3.05;;;8.30;65.80;;;;;;5015504;28;20489;-60
2021/04/28 05:57:18;;;;;;;9.93;3.53;;;8.30;65.70;;;;;;5014856;28;20053;-60
2021/04/28 05:59:46;;;;;;;5.93;3.10;;;8.30;65.60;;;;;;5015667;28;20064;-60
2021/04/28 06:02:12;;;;;;;8.40;4.35;;;8.30;65.40;;;;;;5015333;28;20022;-59
2021/04/28 06:04:38;;;;;;;12.00;3.33;;;8.30;65.00;;;;;;5014620;28;20030;-60
2021/04/28 06:07:05;;;;;;;6.32;3.08;;;8.40;64.90;;;;;;5015354;28;20049;-59
2021/04/28 06:09:30;;;;;;;10.43;3.25;;;8.40;64.60;;;;;;5014911;28;20083;-59
2021/04/28 06:11:56;;;;;;;6.97;3.08;;;8.50;64.30;;;;;;5014662;28;20393;-59
2021/04/28 06:14:22;;;;;;;6.57;3.35;;;8.60;64.10;;;;;;5015208;28;20022;-59
2021/04/28 06:16:48;;;;;;;7.65;2.53;;;8.60;63.90;;;;;;5014910;28;20038;-59
2021/04/28 06:19:16;;;;;;;5.43;2.95;;;8.70;63.80;;;;;;5014182;28;20040;-60
2021/04/28 06:21:42;;;;;;;5.57;2.88;;;8.70;63.80;;;;;;5014966;28;20038;-60
2021/04/28 06:24:08;;;;;;;6.65;2.83;;;8.80;63.50;;;;;;5015049;28;20038;-60
2021/04/28 06:26:35;;;;;;;8.93;2.92;;;8.80;63.30;;;;;;5012834;28;20033;-59
2021/04/28 06:29:01;;;;;;;8.27;4.25;;;8.90;63.30;;;;;;5014836;28;20124;-60
2021/04/28 06:31:27;;;;;;;9.45;3.25;;;9.00;63.00;;;;;;5014713;28;20121;-60
2021/04/28 06:33:53;;;;;;;10.07;3.40;;;9.00;62.90;;;;;;5014112;28;20057;-59
2021/04/28 06:36:18;;;;;;;5.53;2.95;;;9.10;62.90;;;;;;5014547;28;20030;-60
2021/04/28 06:38:44;;;;;;;3.47;2.40;;;9.20;63.00;;;;;;5014728;28;20037;-59
2021/04/28 06:41:10;;;;;;;3.25;2.05;;;9.20;62.90;;;;;;5014166;28;20034;-59
2021/04/28 06:43:36;;;;;;;6.03;3.30;;;9.20;62.80;;;;;;5014406;28;20532;-60
2021/04/28 06:46:02;;;;;;;8.57;4.22;;;9.20;62.80;;;;;;5014644;28;20033;-61
2021/04/28 06:48:27;;;;;;;5.15;2.47;;;9.30;62.70;;;;;;5013672;28;20445;-61
2021/04/28 06:50:53;;;;;;;9.00;3.30;;;9.30;62.60;;;;;;5014195;28;20109;-61
2021/04/28 06:53:21;;;;;;;6.15;3.78;;;9.40;62.60;;;;;;5013597;28;20110;-60
2021/04/28 06:55:47;;;;;;;5.88;3.25;;;9.40;62.20;;;;;;5013830;28;20037;-60
2021/04/28 06:58:13;;;;;;;7.18;3.50;;;9.50;62.40;;;;;;5014189;28;20069;-61
2021/04/28 07:00:38;;;;;;;5.28;3.15;;;9.50;62.10;;;;;;5013094;28;20469;-60
2021/04/28 07:03:04;;;;;;;10.40;3.80;;;9.50;61.90;;;;;;5013763;28;20026;-60
2021/04/28 07:05:30;;;;;;;9.23;5.95;;;9.60;61.80;;;;;;5013702;28;20030;-60
2021/04/28 07:07:56;;;;;;;5.93;3.35;;;9.60;61.90;;;;;;5013266;28;20172;-60
2021/04/28 07:10:22;;;;;;;5.07;3.10;;;9.70;61.90;;;;;;4996281;28;20065;-60
2021/04/28 07:12:51;;;;;;;8.68;3.00;;;9.70;61.50;;;;;;5013991;28;20076;-60
2021/04/28 07:15:17;;;;;;;5.55;2.67;;;9.80;61.30;;;;;;5013228;28;20030;-61
2021/04/28 07:17:47;;;;;;;6.65;3.20;;;9.80;61.20;;;;;;5013113;28;20593;-61
2021/04/28 07:20:14;;;;;;;9.18;3.00;;;9.90;61.10;;;;;;5012214;28;20540;-61
2021/04/28 07:22:41;;;;;;;7.28;3.60;;;10.00;61.00;;;;;;5012680;28;20060;-60
2021/04/28 07:25:07;;;;;;;9.57;4.20;;;10.00;61.00;;;;;;5013573;28;20096;-60
2021/04/28 07:27:33;;;;;;;8.60;3.45;;;10.10;61.00;;;;;;5012363;28;20457;-61
2021/04/28 07:29:59;;;;;;;10.55;4.30;;;10.10;60.70;;;;;;5011360;28;20044;-63
2021/04/28 07:32:25;;;;;;;5.78;3.20;;;10.20;60.50;;;;;;5011368;28;20396;-64
2021/04/28 07:34:50;;;;;;;9.32;3.40;;;10.20;60.50;;;;;;5011808;28;20063;-63
2021/04/28 07:37:16;;;;;;;12.23;3.88;;;10.30;60.50;;;;;;5010714;28;20117;-61
2021/04/28 07:39:42;;;;;;;6.15;3.40;;;10.30;60.30;;;;;;5011292;28;20044;-62
2021/04/28 07:42:08;;;;;;;7.57;3.30;;;10.40;60.00;;;;;;5012297;28;20473;-61
2021/04/28 07:44:34;;;;;;;5.30;3.22;;;10.40;59.80;;;;;;5011602;28;20072;-61
2021/04/28 07:47:00;;;;;;;7.07;3.70;;;10.50;59.90;;;;;;5012172;28;20390;-60
2021/04/28 07:49:27;;;;;;;5.20;2.47;;;10.50;59.70;;;;;;5011911;28;20484;-61
2021/04/28 07:51:53;;;;;;;5.90;3.10;;;10.60;59.60;;;;;;5013107;28;20060;-61
2021/04/28 07:54:22;;;;;;;6.20;3.55;;;10.60;59.60;;;;;;5012042;28;20485;-61
2021/04/28 07:56:49;;;;;;;12.15;3.35;;;10.70;59.40;;;;;;5012261;28;20029;-65
2021/04/28 07:59:15;;;;;;;11.35;3.70;;;10.70;59.70;;;;;;5012587;28;20121;-61
2021/04/28 08:01:41;;;;;;;7.30;3.47;;;10.70;59.60;;;;;;5013157;28;20385;-61
2021/04/28 08:04:07;;;;;;;8.20;3.13;;;10.80;59.90;;;;;;5008040;28;20041;-60
2021/04/28 08:06:33;;;;;;;7.90;3.60;;;10.70;59.90;;;;;;5010611;28;20040;-61
2021/04/28 08:08:59;;;;;;;4.20;2.75;;;10.70;60.00;;;;;;5007568;28;20030;-60
2021/04/28 08:11:25;;;;;;;3.65;2.20;;;10.70;60.30;;;;;;5011722;28;20109;-60
2021/04/28 08:13:53;;;;;;;9.82;3.60;;;10.80;60.40;;;;;;5012738;28;20063;-61
2021/04/28 08:16:20;;;;;;;7.95;3.75;;;10.80;59.70;;;;;;5012240;28;20042;-61
2021/04/28 08:18:46;;;;;;;8.82;3.70;;;10.80;59.30;;;;;;5012071;28;20083;-60
2021/04/28 08:21:12;;;;;;;12.02;3.92;;;10.80;59.50;;;;;;5012825;28;20020;-61
2021/04/28 08:23:44;;;;;;;10.73;3.40;;;10.90;59.60;;;;;;5012955;28;20041;-61
2021/04/28 08:26:14;;;;;;;6.70;3.70;;;11.00;59.70;;;;;;5008785;28;20050;-61
2021/04/28 08:28:44;;;;;;;7.10;3.50;;;11.00;59.40;;;;;;5008679;28;20508;-61
2021/04/28 08:31:17;;;;;;;5.47;2.92;;;11.00;59.90;;;;;;5012362;28;20036;-60
2021/04/28 08:33:43;;;;;;;8.48;3.70;;;11.10;60.20;;;;;;5011990;28;20030;-60
2021/04/28 08:36:10;;;;;;;13.95;5.03;;;11.10;60.20;;;;;;5004242;28;20552;-60
2021/04/28 08:38:37;;;;;;;8.05;4.07;;;11.10;60.70;;;;;;4997017;28;20026;-60
2021/04/28 08:41:08;;;;;;;9.05;3.55;;;11.20;59.80;;;;;;4993213;28;20033;-61
2021/04/28 08:43:33;;;;;;;13.02;3.40;;;11.20;59.90;;;;;;5001096;28;20121;-60
2021/04/28 08:46:01;;;;;;;9.02;3.58;;;11.20;60.40;;;;;;5011650;28;20148;-60
2021/04/28 08:48:28;;;;;;;7.80;3.90;;;11.30;60.40;;;;;;5012445;28;20025;-60
2021/04/28 08:50:54;;;;;;;9.90;3.55;;;11.30;60.50;;;;;;4997839;28;20042;-60
2021/04/28 08:53:19;;;;;;;6.82;3.83;;;11.30;60.40;;;;;;5015926;28;20037;-60
2021/04/28 08:55:45;;;;;;;13.70;4.05;;;11.40;60.90;;;;;;5016441;28;20030;-60
2021/04/28 08:58:12;;;;;;;9.48;4.03;;;11.40;60.80;;;;;;5014922;28;20030;-60
2021/04/28 09:00:38;;;;;;;9.20;4.13;;;11.40;61.40;;;;;;5014999;28;20137;-60
2021/04/28 09:03:04;;;;;;;6.65;3.80;;;11.50;60.40;;;;;;5016102;28;20509;-60
2021/04/28 09:05:32;;;;;;;6.55;3.33;;;11.60;60.60;;;;;;5016052;28;20041;-60
2021/04/28 09:07:59;;;;;;;8.82;4.00;;;11.50;61.00;;;;;;5015420;28;20033;-60
2021/04/28 09:10:27;;;;;;;7.95;3.85;;;11.50;59.90;;;;;;5015820;28;20397;-60
2021/04/28 09:13:04;;;;;;;8.07;4.38;;;11.60;60.80;;;;;;5015731;28;20485;-60
2021/04/28 09:15:43;;;;;;;6.65;3.10;;;11.60;60.50;;;;;;5015426;28;20422;-60
2021/04/28 09:18:13;;;;;;;7.65;3.90;;;11.70;61.00;;;;;;5009344;28;20045;-60
2021/04/28 09:21:11;;;;;;;6.50;3.65;;;11.70;61.70;;;;;;4978099;28;20041;-60
2021/04/28 09:23:56;;;;;;;7.50;3.53;;;11.70;61.90;;;;;;5013057;28;20080;-60
2021/04/28 09:26:40;;;;;;;5.93;3.50;;;11.70;61.60;;;;;;5014267;28;20543;-60
2021/04/28 09:29:17;;;;;;;11.38;4.07;;;11.80;62.10;;;;;;5014909;28;20046;-60
2021/04/28 09:32:06;;;;;;;8.95;3.90;;;11.80;62.40;;;;;;5015282;28;20037;-60
2021/04/28 09:34:38;;;;;;;6.25;3.63;;;11.80;62.70;;;;;;5013350;28;20041;-60
2021/04/28 09:37:12;;;;;;;10.18;4.15;;;11.80;63.00;;;;;;5014123;28;20393;-60
2021/04/28 09:39:49;;;;;;;12.50;4.38;;;11.80;62.40;;;;;;5015285;28;20030;-62
2021/04/28 09:42:19;;;;;;;9.40;3.80;;;11.80;61.40;;;;;;4997077;28;20034;-60
2021/04/28 09:44:49;;;;;;;8.25;3.90;;;11.90;60.70;;;;;;5015402;28;20022;-64
2021/04/28 09:47:22;;;;;;;6.10;3.15;;;12.00;60.70;;;;;;5015512;28;20093;-63
2021/04/28 09:49:52;;;;;;;15.20;4.22;;;12.10;60.30;;;;;;5014197;28;20049;-61
2021/04/28 09:52:24;;;;;;;7.93;4.18;;;12.20;60.30;;;;;;5015268;28;20022;-60
2021/04/28 09:54:52;;;;;;;7.97;3.67;;;12.20;59.90;;;;;;5015350;28;20041;-61
2021/04/28 09:57:32;;;;;;;6.32;3.65;;;12.30;59.70;;;;;;5014716;28;20030;-60
2021/04/28 09:59:57;;;;;;;7.97;4.03;;;12.30;60.20;;;;;;5015477;28;20022;-60
2021/04/28 10:02:32;;;;;;;7.18;3.97;;;12.40;59.90;;;;;;5014835;28;20026;-61
2021/04/28 10:05:17;;;;;;;10.80;4.20;;;12.40;59.50;;;;;;5014279;28;20085;-60
2021/04/28 10:07:43;;;;;;;7.00;3.83;;;12.50;58.70;;;;;;5014653;28;20469;-60
2021/04/28 10:10:11;;;;;;;7.07;3.35;;;12.60;59.40;;;;;;5014314;28;20074;-60
2021/04/28 10:12:37;;;;;;;11.70;3.70;;;12.60;60.40;;;;;;5015181;28;20041;-60
2021/04/28 10:15:05;;;;;;;8.32;4.43;;;12.60;59.20;;;;;;5015130;28;20117;-60
2021/04/28 10:17:31;;;;;;;5.60;3.80;;;12.70;58.20;;;;;;4987420;28;20877;-60
2021/04/28 10:19:58;;;;;;;12.43;4.20;;;12.70;58.10;;;;;;4973253;28;20486;-60
2021/04/28 10:22:25;;;;;;;6.05;3.83;;;12.70;58.60;;;;;;4964692;28;20023;-60
2021/04/28 10:24:53;;;;;;;7.75;3.60;;;12.80;56.60;;;;;;4975322;28;20068;-60
2021/04/28 10:27:19;;;;;;;5.70;3.35;;;12.90;56.50;;;;;;4974918;28;20377;-61
2021/04/28 10:29:47;;;;;;;6.80;3.90;;;13.00;56.70;;;;;;4975723;28;20034;-60
2021/04/28 10:32:14;;;;;;;6.40;3.35;;;13.00;56.50;;;;;;4974644;28;20038;-60
2021/04/28 10:34:51;;;;;;;10.30;4.10;;;13.10;55.40;;;;;;4975380;28;20033;-60
2021/04/28 10:37:20;;;;;;;6.47;2.15;;;13.10;54.90;;;;;;4975777;28;20093;-60
2021/04/28 10:39:49;;;;;;;8.18;3.45;;;13.30;55.90;;;;;;4974721;28;20034;-60
2021/04/28 10:42:34;;;;;;;8.07;3.92;;;13.30;56.40;;;;;;4974256;28;20070;-60
2021/04/28 10:45:11;;;;;;;9.68;3.97;;;13.40;55.50;;;;;;4971337;28;20053;-61
2021/04/28 10:47:41;;;;;;;5.85;3.45;;;13.40;55.20;;;;;;4960949;28;20030;-60
2021/04/28 10:50:27;;;;;;;5.35;3.05;;;13.50;56.20;;;;;;4973368;28;20042;-62
2021/04/28 10:53:01;;;;;;;6.65;3.63;;;13.50;55.20;;;;;;4972502;28;20050;-62
2021/04/28 10:55:58;;;;;;;9.07;2.90;;;13.50;56.00;;;;;;4974142;28;20058;-61
2021/04/28 10:58:27;;;;;;;7.72;3.35;;;13.50;57.10;;;;;;4974255;28;20100;-60
2021/04/28 11:03:46;;;;;;;7.70;3.45;;;13.60;54.80;;;;;;4974081;28;20467;-60
2021/04/28 11:08:44;;;;;;;6.20;3.65;;;13.70;54.80;;;;;;4973477;28;20034;-60
2021/04/28 11:11:38;;;;;;;7.25;3.45;;;13.70;54.30;;;;;;4973532;28;20026;-60
2021/04/28 11:14:09;;;;;;;7.25;4.10;;;13.80;53.90;;;;;;4972504;28;20031;-61
2021/04/28 11:16:39;;;;;;;1.95;1.33;;;13.90;54.50;;;;;;4985128;28;20046;-61
2021/04/28 11:19:27;;;;;;;5.65;3.50;;;14.00;56.20;;;;;;5012371;28;20025;-61
2021/04/28 11:22:27;;;;;;;6.22;3.60;;;14.10;54.10;;;;;;5011884;28;20465;-61
2021/04/28 11:25:07;;;;;;;5.57;2.65;;;14.10;54.20;;;;;;5009773;28;20030;-60
2021/04/28 11:28:06;;;;;;;5.55;2.92;;;14.20;54.50;;;;;;5011748;28;20496;-61
2021/04/28 11:30:42;;;;;;;5.88;3.15;;;14.30;53.60;;;;;;5010403;28;20041;-61
2021/04/28 11:33:27;;;;;;;5.30;3.58;;;14.30;53.40;;;;;;5012170;28;20076;-61
2021/04/28 11:35:53;;;;;;;6.13;3.53;;;14.40;52.50;;;;;;5012002;28;20056;-61
2021/04/28 11:38:33;;;;;;;6.15;3.20;;;14.50;51.50;;;;;;5012576;28;20065;-61
2021/04/28 11:41:11;;;;;;;4.25;2.50;;;14.60;51.60;;;;;;4994433;28;20446;-61
2021/04/28 11:43:52;;;;;;;2.22;1.75;;;14.60;53.40;;;;;;5011552;28;20033;-61
2021/04/28 11:46:19;;;;;;;10.23;3.97;;;14.70;54.20;;;;;;5012189;28;20033;-61
2021/04/28 11:48:48;;;;;;;11.43;4.05;;;14.80;53.80;;;;;;5011404;28;20389;-61
2021/04/28 11:51:19;;;;;;;6.05;2.55;;;14.90;55.20;;;;;;5011967;28;20037;-61
2021/04/28 11:53:54;;;;;;;6.43;3.63;;;14.80;56.10;;;;;;5012225;28;20032;-61
2021/04/28 11:56:47;;;;;;;8.98;4.20;;;14.80;56.80;;;;;;5011285;28;20033;-61
2021/04/28 11:59:26;;;;;;;9.67;4.47;;;14.80;56.80;;;;;;5011711;28;20026;-61
2021/04/28 12:01:59;;;;;;;8.50;4.13;;;14.70;57.10;;;;;;5012059;28;20053;-61
2021/04/28 12:04:35;;;;;;;8.57;2.72;;;14.70;56.30;;;;;;5011311;28;20393;-61
2021/04/28 12:07:05;;;;;;;5.35;3.45;;;14.70;57.40;;;;;;5011899;28;20500;-60
2021/04/28 12:09:43;;;;;;;7.60;4.22;;;14.70;58.40;;;;;;5009844;28;20056;-62
2021/04/28 12:12:31;;;;;;;5.72;3.30;;;14.70;59.20;;;;;;5011954;28;20030;-61
2021/04/28 12:15:06;;;;;;;11.18;5.00;;;14.60;59.10;;;;;;5007494;28;20096;-62
2021/04/28 12:17:38;;;;;;;6.72;3.58;;;14.60;59.70;;;;;;4990467;28;20402;-64
2021/04/28 12:20:23;;;;;;;3.88;2.67;;;14.60;59.70;;;;;;4993323;28;20097;-61
2021/04/28 12:22:49;;;;;;;6.47;3.17;;;14.60;59.60;;;;;;4995104;28;20050;-63
2021/04/28 12:25:18;;;;;;;8.63;3.83;;;14.60;59.70;;;;;;4995300;28;20030;-61
2021/04/28 12:27:46;;;;;;;9.55;4.55;;;14.60;59.80;;;;;;4997301;28;20546;-61
2021/04/28 12:30:16;;;;;;;8.35;4.32;;;14.60;59.80;;;;;;4995643;28;20045;-60
2021/04/28 12:32:45;;;;;;;7.25;4.28;;;14.50;60.20;;;;;;5003941;28;20030;-61
2021/04/28 12:35:19;;;;;;;11.77;3.88;;;14.60;60.50;;;;;;5003798;28;20034;-59
2021/04/28 12:38:13;;;;;;;6.72;3.53;;;14.60;60.80;;;;;;5004950;28;20026;-59
2021/04/28 12:40:51;;;;;;;10.90;5.07;;;14.70;60.30;;;;;;5004893;28;20113;-59
2021/04/28 12:43:32;;;;;;;5.15;3.63;;;14.70;59.60;;;;;;5002262;28;20058;-59
2021/04/28 12:46:05;;;;;;;10.77;4.93;;;14.60;59.90;;;;;;5003462;28;20037;-59
2021/04/28 12:48:50;;;;;;;;;;;14.60;60.40;;;;;;5004991;28;20367;-59
2021/04/28 12:51:16;;;;;;;8.13;2.92;;;14.60;61.00;;;;;;5005004;28;20437;-58
2021/04/28 12:53:43;;;;;;;8.63;3.50;;;14.60;61.10;;;;;;5003815;28;20029;-61
2021/04/28 12:56:09;;;;;;;15.07;4.63;;;14.70;60.90;;;;;;5004124;28;20031;-59
2021/04/28 12:58:46;;;;;;;7.50;4.25;;;14.60;60.90;;;;;;5004670;28;20030;-58
2021/04/28 13:01:20;;;;;;;8.52;4.25;;;14.60;60.50;;;;;;5003488;28;20053;-59
2021/04/28 13:03:46;;;;;;;7.50;3.83;;;14.70;60.70;;;;;;4992209;28;20026;-59
2021/04/28 13:06:22;;;;;;;9.55;5.20;;;14.70;60.90;;;;;;4992833;28;20043;-59
2021/04/28 13:08:47;;;;;;;14.68;4.93;;;14.70;60.60;;;;;;4995902;28;20432;-70
2021/04/28 13:11:18;;;;;;;6.35;3.50;;;14.70;60.50;;;;;;5010020;28;20046;-59
2021/04/28 13:13:50;;;;;;;10.10;4.32;;;14.70;61.30;;;;;;5011173;28;20062;-59